sensor_id;sensor_type;location;lat;lon;timestamp;pressure;altitude;pressure_sealevel;temperature;humidity
57376;BME280;44805;45.048;5.062;2023-05-25T00:01:41;99600.56;;;15.94;52.88
57376;BME280;44805;45.048;5.062;2023-05-25T00:04:08;99580.06;;;15.88;53.03
57376;BME280;44805;45.048;5.062;2023-05-25T00:06:34;99529.91;;;15.63;52.46
57376;BME280;44805;45.048;5.062;2023-05-25T00:09:01;99586.06;;;15.96;52.48
57376;BME280;44805;45.048;5.062;2023-05-25T00:11:27;99596.31;;;15.99;53.17
57376;BME280;44805;45.048;5.062;2023-05-25T00:13:53;99607.41;;;16.03;52.44
57376;BME280;44805;45.048;5.062;2023-05-25T00:16:20;99600.00;;;15.98;52.87
57376;BME280;44805;45.048;5.062;2023-05-25T00:18:46;99537.63;;;15.58;52.35
57376;BME280;44805;45.048;5.062;2023-05-25T00:21:13;99603.59;;;15.91;52.40
57376;BME280;44805;45.048;5.062;2023-05-25T00:23:40;99558.75;;;15.66;52.43
57376;BME280;44805;45.048;5.062;2023-05-25T00:26:05;99527.72;;;15.52;52.23
57376;BME280;44805;45.048;5.062;2023-05-25T00:28:30;99533.16;;;15.44;52.37
57376;BME280;44805;45.048;5.062;2023-05-25T00:30:56;99636.34;;;15.98;52.32
57376;BME280;44805;45.048;5.062;2023-05-25T00:33:21;99585.28;;;15.66;52.52
57376;BME280;44805;45.048;5.062;2023-05-25T00:35:47;99631.03;;;15.98;52.84
57376;BME280;44805;45.048;5.062;2023-05-25T00:38:16;99568.06;;;15.62;52.14
57376;BME280;44805;45.048;5.062;2023-05-25T00:40:42;99610.91;;;15.89;52.37
57376;BME280;44805;45.048;5.062;2023-05-25T00:43:08;99630.13;;;15.91;52.31
57376;BME280;44805;45.048;5.062;2023-05-25T00:45:34;99635.59;;;16.04;52.73
57376;BME280;44805;45.048;5.062;2023-05-25T00:47:59;99605.88;;;15.79;52.33
57376;BME280;44805;45.048;5.062;2023-05-25T00:50:39;99597.22;;;15.70;52.50
57376;BME280;44805;45.048;5.062;2023-05-25T00:53:05;99607.06;;;15.76;52.45
57376;BME280;44805;45.048;5.062;2023-05-25T00:55:35;99637.56;;;15.95;52.32
57376;BME280;44805;45.048;5.062;2023-05-25T00:58:03;99585.84;;;15.76;52.32
57376;BME280;44805;45.048;5.062;2023-05-25T01:00:29;99602.94;;;15.59;53.23
57376;BME280;44805;45.048;5.062;2023-05-25T01:02:57;99572.94;;;15.44;53.36
57376;BME280;44805;45.048;5.062;2023-05-25T01:05:24;99582.28;;;15.39;54.02
57376;BME280;44805;45.048;5.062;2023-05-25T01:10:30;99604.06;;;15.35;54.59
57376;BME280;44805;45.048;5.062;2023-05-25T01:12:58;99653.78;;;15.71;55.23
57376;BME280;44805;45.048;5.062;2023-05-25T01:15:25;99651.56;;;15.74;54.94
57376;BME280;44805;45.048;5.062;2023-05-25T01:17:51;99621.50;;;15.59;54.80
57376;BME280;44805;45.048;5.062;2023-05-25T01:20:18;99556.78;;;15.09;54.99
57376;BME280;44805;45.048;5.062;2023-05-25T01:22:49;99587.59;;;15.25;54.68
57376;BME280;44805;45.048;5.062;2023-05-25T01:25:21;99641.94;;;15.58;54.75
57376;BME280;44805;45.048;5.062;2023-05-25T01:28:17;99539.13;;;15.01;55.76
57376;BME280;44805;45.048;5.062;2023-05-25T01:30:47;99584.41;;;15.29;54.11
57376;BME280;44805;45.048;5.062;2023-05-25T01:33:15;99608.25;;;15.44;53.90
57376;BME280;44805;45.048;5.062;2023-05-25T01:35:43;99604.22;;;15.33;54.46
57376;BME280;44805;45.048;5.062;2023-05-25T01:38:09;99628.28;;;15.47;55.19
57376;BME280;44805;45.048;5.062;2023-05-25T01:40:35;99578.06;;;15.15;54.28
57376;BME280;44805;45.048;5.062;2023-05-25T01:43:01;99598.09;;;15.18;55.66
57376;BME280;44805;45.048;5.062;2023-05-25T01:45:26;99638.00;;;15.39;54.79
57376;BME280;44805;45.048;5.062;2023-05-25T01:48:01;99649.13;;;15.20;54.36
57376;BME280;44805;45.048;5.062;2023-05-25T01:50:39;99597.69;;;14.91;55.70
57376;BME280;44805;45.048;5.062;2023-05-25T01:53:22;99624.66;;;14.95;55.70
57376;BME280;44805;45.048;5.062;2023-05-25T01:56:02;99644.03;;;14.95;55.89
57376;BME280;44805;45.048;5.062;2023-05-25T01:58:41;99633.28;;;14.97;56.12
57376;BME280;44805;45.048;5.062;2023-05-25T02:01:08;99642.47;;;14.86;56.24
57376;BME280;44805;45.048;5.062;2023-05-25T02:03:37;99597.38;;;14.48;56.65
57376;BME280;44805;45.048;5.062;2023-05-25T02:06:04;99563.97;;;14.39;56.93
57376;BME280;44805;45.048;5.062;2023-05-25T02:08:29;99641.94;;;14.68;56.11
57376;BME280;44805;45.048;5.062;2023-05-25T02:10:55;99633.78;;;14.54;57.10
57376;BME280;44805;45.048;5.062;2023-05-25T02:13:20;99607.31;;;14.46;56.61
57376;BME280;44805;45.048;5.062;2023-05-25T02:15:46;99643.97;;;14.66;57.30
57376;BME280;44805;45.048;5.062;2023-05-25T02:18:11;99573.75;;;14.16;56.05
57376;BME280;44805;45.048;5.062;2023-05-25T02:20:38;99622.19;;;14.47;57.02
57376;BME280;44805;45.048;5.062;2023-05-25T02:23:03;99636.28;;;14.48;57.14
57376;BME280;44805;45.048;5.062;2023-05-25T02:25:29;99615.97;;;14.17;57.32
57376;BME280;44805;45.048;5.062;2023-05-25T02:27:55;99573.47;;;14.10;56.86
57376;BME280;44805;45.048;5.062;2023-05-25T02:30:20;99573.28;;;14.12;56.00
57376;BME280;44805;45.048;5.062;2023-05-25T02:32:46;99598.53;;;14.23;56.68
57376;BME280;44805;45.048;5.062;2023-05-25T02:35:11;99572.50;;;14.03;56.84
57376;BME280;44805;45.048;5.062;2023-05-25T02:37:37;99593.69;;;14.26;56.40
57376;BME280;44805;45.048;5.062;2023-05-25T02:40:04;99552.72;;;13.91;57.20
57376;BME280;44805;45.048;5.062;2023-05-25T02:42:30;99631.88;;;14.40;57.24
57376;BME280;44805;45.048;5.062;2023-05-25T02:44:55;99624.25;;;14.37;56.73
57376;BME280;44805;45.048;5.062;2023-05-25T02:47:20;99573.50;;;14.02;57.04
57376;BME280;44805;45.048;5.062;2023-05-25T02:49:46;99595.53;;;14.26;56.89
57376;BME280;44805;45.048;5.062;2023-05-25T02:52:12;99590.66;;;14.15;57.43
57376;BME280;44805;45.048;5.062;2023-05-25T02:54:38;99565.34;;;13.81;57.21
57376;BME280;44805;45.048;5.062;2023-05-25T02:57:04;99614.44;;;14.23;57.06
57376;BME280;44805;45.048;5.062;2023-05-25T02:59:29;99600.41;;;14.14;57.42
57376;BME280;44805;45.048;5.062;2023-05-25T03:01:59;99562.78;;;13.96;57.21
57376;BME280;44805;45.048;5.062;2023-05-25T03:04:25;99632.91;;;14.31;58.58
57376;BME280;44805;45.048;5.062;2023-05-25T03:06:50;99543.00;;;13.52;58.84
57376;BME280;44805;45.048;5.062;2023-05-25T03:09:16;99565.13;;;13.59;58.76
57376;BME280;44805;45.048;5.062;2023-05-25T03:11:42;99573.72;;;13.61;58.79
57376;BME280;44805;45.048;5.062;2023-05-25T03:14:09;99567.78;;;13.59;59.41
57376;BME280;44805;45.048;5.062;2023-05-25T03:16:35;99522.09;;;13.26;58.48
57376;BME280;44805;45.048;5.062;2023-05-25T03:19:03;99626.22;;;13.81;58.51
57376;BME280;44805;45.048;5.062;2023-05-25T03:21:30;99591.94;;;13.56;60.06
57376;BME280;44805;45.048;5.062;2023-05-25T03:23:55;99595.88;;;13.60;59.65
57376;BME280;44805;45.048;5.062;2023-05-25T03:26:24;99550.72;;;13.31;59.60
57376;BME280;44805;45.048;5.062;2023-05-25T03:28:50;99522.69;;;12.89;60.60
57376;BME280;44805;45.048;5.062;2023-05-25T03:31:16;99529.63;;;12.98;61.22
57376;BME280;44805;45.048;5.062;2023-05-25T03:33:42;99561.25;;;13.22;61.12
57376;BME280;44805;45.048;5.062;2023-05-25T03:36:08;99593.66;;;13.41;61.45
57376;BME280;44805;45.048;5.062;2023-05-25T03:38:35;99618.88;;;13.60;61.40
57376;BME280;44805;45.048;5.062;2023-05-25T03:41:01;99572.69;;;13.23;61.32
57376;BME280;44805;45.048;5.062;2023-05-25T03:43:26;99571.84;;;13.39;61.24
57376;BME280;44805;45.048;5.062;2023-05-25T03:45:52;99612.75;;;13.59;61.68
57376;BME280;44805;45.048;5.062;2023-05-25T03:48:17;99578.44;;;13.35;61.58
57376;BME280;44805;45.048;5.062;2023-05-25T03:50:43;99585.91;;;13.23;62.24
57376;BME280;44805;45.048;5.062;2023-05-25T03:53:08;99590.53;;;13.29;62.23
57376;BME280;44805;45.048;5.062;2023-05-25T03:55:33;99586.06;;;13.30;61.16
57376;BME280;44805;45.048;5.062;2023-05-25T03:57:59;99568.44;;;13.06;62.27
57376;BME280;44805;45.048;5.062;2023-05-25T04:00:24;99633.47;;;13.39;62.50
57376;BME280;44805;45.048;5.062;2023-05-25T04:02:50;99531.50;;;12.73;62.64
57376;BME280;44805;45.048;5.062;2023-05-25T04:05:16;99564.66;;;12.75;63.07
57376;BME280;44805;45.048;5.062;2023-05-25T04:07:41;99550.47;;;12.68;62.97
57376;BME280;44805;45.048;5.062;2023-05-25T04:10:07;99630.00;;;13.22;64.03
57376;BME280;44805;45.048;5.062;2023-05-25T04:12:33;99594.34;;;13.10;64.06
57376;BME280;44805;45.048;5.062;2023-05-25T04:14:58;99593.69;;;13.08;63.28
57376;BME280;44805;45.048;5.062;2023-05-25T04:17:24;99639.59;;;13.40;62.97
57376;BME280;44805;45.048;5.062;2023-05-25T04:19:50;99601.13;;;12.96;63.77
57376;BME280;44805;45.048;5.062;2023-05-25T04:22:17;99575.88;;;12.69;63.48
57376;BME280;44805;45.048;5.062;2023-05-25T04:24:42;99540.75;;;12.52;64.35
57376;BME280;44805;45.048;5.062;2023-05-25T04:27:08;99648.88;;;13.03;64.01
57376;BME280;44805;45.048;5.062;2023-05-25T04:29:33;99643.56;;;12.95;64.05
57376;BME280;44805;45.048;5.062;2023-05-25T04:31:59;99583.81;;;12.53;64.08
57376;BME280;44805;45.048;5.062;2023-05-25T04:34:24;99607.91;;;12.74;64.91
57376;BME280;44805;45.048;5.062;2023-05-25T04:36:50;99587.78;;;12.65;64.28
57376;BME280;44805;45.048;5.062;2023-05-25T04:39:15;99638.28;;;12.95;65.01
57376;BME280;44805;45.048;5.062;2023-05-25T04:41:42;99559.56;;;12.57;64.69
57376;BME280;44805;45.048;5.062;2023-05-25T04:44:07;99608.56;;;13.01;64.76
57376;BME280;44805;45.048;5.062;2023-05-25T04:46:33;99543.22;;;12.54;64.64
57376;BME280;44805;45.048;5.062;2023-05-25T04:49:03;99638.63;;;13.08;65.19
57376;BME280;44805;45.048;5.062;2023-05-25T04:51:29;99583.78;;;12.94;64.29
57376;BME280;44805;45.048;5.062;2023-05-25T04:53:56;99595.16;;;13.02;64.58
57376;BME280;44805;45.048;5.062;2023-05-25T04:56:22;99659.75;;;13.16;64.64
57376;BME280;44805;45.048;5.062;2023-05-25T04:58:50;99664.38;;;13.22;64.59
57376;BME280;44805;45.048;5.062;2023-05-25T05:01:16;99609.56;;;13.08;65.51
57376;BME280;44805;45.048;5.062;2023-05-25T05:03:44;99643.72;;;13.34;65.13
57376;BME280;44805;45.048;5.062;2023-05-25T05:06:09;99652.47;;;13.51;64.69
57376;BME280;44805;45.048;5.062;2023-05-25T05:08:34;99681.66;;;13.66;65.06
57376;BME280;44805;45.048;5.062;2023-05-25T05:11:00;99664.31;;;13.72;64.90
57376;BME280;44805;45.048;5.062;2023-05-25T05:13:25;99626.84;;;13.52;65.03
57376;BME280;44805;45.048;5.062;2023-05-25T05:15:51;99686.75;;;13.76;64.73
57376;BME280;44805;45.048;5.062;2023-05-25T05:18:18;99664.38;;;13.47;64.71
57376;BME280;44805;45.048;5.062;2023-05-25T05:20:43;99619.13;;;13.01;65.58
57376;BME280;44805;45.048;5.062;2023-05-25T05:23:09;99601.47;;;12.93;66.08
57376;BME280;44805;45.048;5.062;2023-05-25T05:25:35;99638.28;;;13.19;65.45
57376;BME280;44805;45.048;5.062;2023-05-25T05:28:02;99651.53;;;13.03;65.43
57376;BME280;44805;45.048;5.062;2023-05-25T05:30:28;99705.38;;;13.27;65.57
57376;BME280;44805;45.048;5.062;2023-05-25T05:32:53;99703.72;;;13.34;66.44
57376;BME280;44805;45.048;5.062;2023-05-25T05:35:19;99648.88;;;12.87;66.09
57376;BME280;44805;45.048;5.062;2023-05-25T05:37:44;99693.13;;;13.25;66.47
57376;BME280;44805;45.048;5.062;2023-05-25T05:40:11;99620.94;;;12.92;66.02
57376;BME280;44805;45.048;5.062;2023-05-25T05:42:37;99725.50;;;13.19;65.66
57376;BME280;44805;45.048;5.062;2023-05-25T05:45:02;99700.91;;;13.19;66.45
57376;BME280;44805;45.048;5.062;2023-05-25T05:47:28;99632.88;;;12.80;66.09
57376;BME280;44805;45.048;5.062;2023-05-25T05:49:53;99675.97;;;13.13;65.18
57376;BME280;44805;45.048;5.062;2023-05-25T05:52:18;99730.66;;;13.29;66.29
57376;BME280;44805;45.048;5.062;2023-05-25T05:54:44;99656.47;;;12.98;65.71
57376;BME280;44805;45.048;5.062;2023-05-25T05:57:09;99693.78;;;13.19;66.13
57376;BME280;44805;45.048;5.062;2023-05-25T05:59:35;99690.13;;;12.79;67.75
57376;BME280;44805;45.048;5.062;2023-05-25T06:02:00;99704.69;;;13.16;67.79
57376;BME280;44805;45.048;5.062;2023-05-25T06:04:26;99696.44;;;13.03;67.01
57376;BME280;44805;45.048;5.062;2023-05-25T06:06:53;99744.72;;;13.30;66.49
57376;BME280;44805;45.048;5.062;2023-05-25T06:09:19;99724.22;;;13.32;66.36
57376;BME280;44805;45.048;5.062;2023-05-25T06:11:46;99714.63;;;13.47;66.89
57376;BME280;44805;45.048;5.062;2023-05-25T06:14:11;99736.41;;;13.65;65.62
57376;BME280;44805;45.048;5.062;2023-05-25T06:16:37;99744.50;;;13.56;65.60
57376;BME280;44805;45.048;5.062;2023-05-25T06:19:02;99725.19;;;13.47;66.43
57376;BME280;44805;45.048;5.062;2023-05-25T06:21:28;99723.22;;;13.49;65.47
57376;BME280;44805;45.048;5.062;2023-05-25T06:23:53;99691.66;;;13.31;65.80
57376;BME280;44805;45.048;5.062;2023-05-25T06:26:21;99751.59;;;13.63;66.04
57376;BME280;44805;45.048;5.062;2023-05-25T06:28:47;99687.00;;;13.17;66.59
57376;BME280;44805;45.048;5.062;2023-05-25T06:31:14;99713.81;;;13.38;66.68
57376;BME280;44805;45.048;5.062;2023-05-25T06:33:39;99725.34;;;13.21;66.72
57376;BME280;44805;45.048;5.062;2023-05-25T06:36:05;99662.59;;;12.98;67.72
57376;BME280;44805;45.048;5.062;2023-05-25T06:38:31;99694.97;;;13.41;67.13
57376;BME280;44805;45.048;5.062;2023-05-25T06:40:56;99743.50;;;13.73;67.47
57376;BME280;44805;45.048;5.062;2023-05-25T06:43:27;99715.94;;;13.18;68.29
57376;BME280;44805;45.048;5.062;2023-05-25T06:45:52;99721.22;;;13.18;68.53
57376;BME280;44805;45.048;5.062;2023-05-25T06:48:18;99715.44;;;12.98;69.32
57376;BME280;44805;45.048;5.062;2023-05-25T06:50:43;99697.44;;;12.86;68.91
57376;BME280;44805;45.048;5.062;2023-05-25T06:53:10;99669.00;;;12.79;68.56
57376;BME280;44805;45.048;5.062;2023-05-25T06:55:35;99701.06;;;12.93;69.28
57376;BME280;44805;45.048;5.062;2023-05-25T06:58:01;99759.09;;;13.27;70.18
57376;BME280;44805;45.048;5.062;2023-05-25T07:00:26;99734.78;;;13.15;70.65
57376;BME280;44805;45.048;5.062;2023-05-25T07:02:52;99770.13;;;13.06;72.78
57376;BME280;44805;45.048;5.062;2023-05-25T07:05:17;99758.53;;;13.07;74.38
57376;BME280;44805;45.048;5.062;2023-05-25T07:07:43;99713.28;;;12.77;72.57
57376;BME280;44805;45.048;5.062;2023-05-25T07:10:08;99732.75;;;12.68;75.00
57376;BME280;44805;45.048;5.062;2023-05-25T07:12:33;99793.09;;;13.14;75.59
57376;BME280;44805;45.048;5.062;2023-05-25T07:14:59;99777.88;;;12.99;75.57
57376;BME280;44805;45.048;5.062;2023-05-25T07:17:24;99744.91;;;12.53;75.20
57376;BME280;44805;45.048;5.062;2023-05-25T07:19:50;99812.69;;;12.87;76.36
57376;BME280;44805;45.048;5.062;2023-05-25T07:22:16;99749.53;;;12.59;77.54
57376;BME280;44805;45.048;5.062;2023-05-25T07:24:44;99776.00;;;12.67;77.31
57376;BME280;44805;45.048;5.062;2023-05-25T07:27:10;99818.50;;;12.90;78.51
57376;BME280;44805;45.048;5.062;2023-05-25T07:29:37;99754.00;;;12.50;78.25
57376;BME280;44805;45.048;5.062;2023-05-25T07:32:02;99801.75;;;12.73;80.66
57376;BME280;44805;45.048;5.062;2023-05-25T07:34:28;99800.13;;;12.72;81.64
57376;BME280;44805;45.048;5.062;2023-05-25T07:36:53;99817.16;;;12.86;82.73
57376;BME280;44805;45.048;5.062;2023-05-25T07:39:19;99794.84;;;12.72;85.50
57376;BME280;44805;45.048;5.062;2023-05-25T07:41:44;99810.22;;;12.85;86.86
57376;BME280;44805;45.048;5.062;2023-05-25T07:44:10;99787.88;;;12.63;87.38
57376;BME280;44805;45.048;5.062;2023-05-25T07:46:35;99792.47;;;12.61;86.40
57376;BME280;44805;45.048;5.062;2023-05-25T07:49:01;99804.38;;;12.57;87.57
57376;BME280;44805;45.048;5.062;2023-05-25T07:51:29;99789.63;;;12.46;89.00
57376;BME280;44805;45.048;5.062;2023-05-25T07:53:55;99808.09;;;12.46;90.47
57376;BME280;44805;45.048;5.062;2023-05-25T07:56:21;99792.66;;;12.25;92.92
57376;BME280;44805;45.048;5.062;2023-05-25T07:58:47;99815.13;;;12.29;94.46
57376;BME280;44805;45.048;5.062;2023-05-25T08:01:13;99823.88;;;12.30;94.87
57376;BME280;44805;45.048;5.062;2023-05-25T08:03:40;99815.94;;;12.22;94.88
57376;BME280;44805;45.048;5.062;2023-05-25T08:06:05;99793.22;;;12.03;96.66
57376;BME280;44805;45.048;5.062;2023-05-25T08:08:31;99805.50;;;12.20;97.23
57376;BME280;44805;45.048;5.062;2023-05-25T08:10:59;99808.81;;;12.22;97.61
57376;BME280;44805;45.048;5.062;2023-05-25T08:13:28;99832.72;;;12.47;96.21
57376;BME280;44805;45.048;5.062;2023-05-25T08:15:53;99819.06;;;12.25;97.44
57376;BME280;44805;45.048;5.062;2023-05-25T08:18:19;99850.66;;;12.43;98.21
57376;BME280;44805;45.048;5.062;2023-05-25T08:20:45;99870.28;;;12.41;98.91
57376;BME280;44805;45.048;5.062;2023-05-25T08:23:10;99827.56;;;12.37;97.15
57376;BME280;44805;45.048;5.062;2023-05-25T08:25:36;99815.78;;;12.66;95.15
57376;BME280;44805;45.048;5.062;2023-05-25T08:31:13;99866.53;;;12.77;96.38
57376;BME280;44805;45.048;5.062;2023-05-25T08:33:38;99882.78;;;13.07;96.73
57376;BME280;44805;45.048;5.062;2023-05-25T08:36:04;99790.38;;;12.73;96.58
57376;BME280;44805;45.048;5.062;2023-05-25T08:38:30;99865.31;;;13.22;95.77
57376;BME280;44805;45.048;5.062;2023-05-25T08:41:04;99890.03;;;13.05;95.07
57376;BME280;44805;45.048;5.062;2023-05-25T08:43:33;99818.78;;;12.87;95.46
57376;BME280;44805;45.048;5.062;2023-05-25T08:46:04;99842.09;;;12.92;96.15
57376;BME280;44805;45.048;5.062;2023-05-25T08:48:32;99902.41;;;13.39;94.33
57376;BME280;44805;45.048;5.062;2023-05-25T08:51:01;99873.53;;;13.03;93.17
57376;BME280;44805;45.048;5.062;2023-05-25T08:53:36;99879.84;;;13.18;94.44
57376;BME280;44805;45.048;5.062;2023-05-25T08:56:07;99872.88;;;13.01;95.32
57376;BME280;44805;45.048;5.062;2023-05-25T08:59:06;99898.13;;;13.62;95.63
57376;BME280;44805;45.048;5.062;2023-05-25T09:01:38;99864.31;;;13.23;95.90
57376;BME280;44805;45.048;5.062;2023-05-25T09:04:08;99882.22;;;13.30;96.16
57376;BME280;44805;45.048;5.062;2023-05-25T09:06:33;99868.41;;;13.01;94.62
57376;BME280;44805;45.048;5.062;2023-05-25T09:09:03;99864.38;;;13.32;95.78
57376;BME280;44805;45.048;5.062;2023-05-25T09:11:28;99908.88;;;13.69;93.45
57376;BME280;44805;45.048;5.062;2023-05-25T09:14:10;99914.97;;;13.53;95.29
57376;BME280;44805;45.048;5.062;2023-05-25T09:16:36;99919.13;;;13.72;94.27
57376;BME280;44805;45.048;5.062;2023-05-25T09:19:02;99909.69;;;13.86;92.28
57376;BME280;44805;45.048;5.062;2023-05-25T09:21:27;99913.03;;;13.88;93.16
57376;BME280;44805;45.048;5.062;2023-05-25T09:23:53;99905.41;;;13.93;94.01
57376;BME280;44805;45.048;5.062;2023-05-25T09:26:19;99861.25;;;13.69;95.19
57376;BME280;44805;45.048;5.062;2023-05-25T09:28:46;99902.56;;;14.27;94.02
57376;BME280;44805;45.048;5.062;2023-05-25T09:31:12;99881.72;;;14.32;93.65
57376;BME280;44805;45.048;5.062;2023-05-25T09:33:38;99884.66;;;14.29;92.77
57376;BME280;44805;45.048;5.062;2023-05-25T09:36:05;99896.66;;;14.73;92.25
57376;BME280;44805;45.048;5.062;2023-05-25T09:38:31;99917.34;;;14.77;91.99
57376;BME280;44805;45.048;5.062;2023-05-25T09:40:57;99892.31;;;14.80;90.50
57376;BME280;44805;45.048;5.062;2023-05-25T09:46:40;99946.25;;;14.48;90.00
57376;BME280;44805;45.048;5.062;2023-05-25T09:49:12;99930.03;;;14.18;89.73
57376;BME280;44805;45.048;5.062;2023-05-25T09:51:39;99942.09;;;14.62;89.70
57376;BME280;44805;45.048;5.062;2023-05-25T09:54:08;99943.88;;;14.69;87.80
57376;BME280;44805;45.048;5.062;2023-05-25T09:56:34;99908.16;;;14.57;86.65
57376;BME280;44805;45.048;5.062;2023-05-25T10:02:20;99949.59;;;14.97;88.09
57376;BME280;44805;45.048;5.062;2023-05-25T10:04:46;99955.56;;;15.00;89.23
57376;BME280;44805;45.048;5.062;2023-05-25T10:07:12;99954.22;;;15.04;88.90
57376;BME280;44805;45.048;5.062;2023-05-25T10:09:39;99922.00;;;15.15;85.43
57376;BME280;44805;45.048;5.062;2023-05-25T10:12:06;99894.00;;;15.12;88.20
57376;BME280;44805;45.048;5.062;2023-05-25T10:14:35;99900.31;;;15.11;84.83
57376;BME280;44805;45.048;5.062;2023-05-25T10:17:03;99959.06;;;15.62;85.69
57376;BME280;44805;45.048;5.062;2023-05-25T10:22:24;99961.34;;;15.66;83.75
57376;BME280;44805;45.048;5.062;2023-05-25T10:24:54;99966.16;;;15.62;82.21
57376;BME280;44805;45.048;5.062;2023-05-25T10:27:28;99944.63;;;15.57;83.04
57376;BME280;44805;45.048;5.062;2023-05-25T10:29:58;99956.19;;;15.72;81.02
57376;BME280;44805;45.048;5.062;2023-05-25T10:32:25;99965.69;;;15.90;80.78
57376;BME280;44805;45.048;5.062;2023-05-25T10:34:51;99932.84;;;16.28;81.10
57376;BME280;44805;45.048;5.062;2023-05-25T10:37:17;99938.19;;;16.20;79.41
57376;BME280;44805;45.048;5.062;2023-05-25T10:39:43;99933.63;;;15.68;82.26
57376;BME280;44805;45.048;5.062;2023-05-25T10:42:11;99944.84;;;16.01;79.88
57376;BME280;44805;45.048;5.062;2023-05-25T10:44:38;99954.22;;;16.12;79.06
57376;BME280;44805;45.048;5.062;2023-05-25T10:47:05;99967.81;;;16.32;80.00
57376;BME280;44805;45.048;5.062;2023-05-25T10:49:32;99948.22;;;16.33;80.08
57376;BME280;44805;45.048;5.062;2023-05-25T10:51:59;99979.28;;;16.33;79.90
57376;BME280;44805;45.048;5.062;2023-05-25T10:54:29;99963.44;;;16.01;79.73
57376;BME280;44805;45.048;5.062;2023-05-25T10:59:39;99988.53;;;16.75;78.58
57376;BME280;44805;45.048;5.062;2023-05-25T11:02:05;99993.81;;;16.22;78.86
57376;BME280;44805;45.048;5.062;2023-05-25T11:04:31;99968.13;;;16.52;79.58
57376;BME280;44805;45.048;5.062;2023-05-25T11:09:28;99993.13;;;16.43;77.29
57376;BME280;44805;45.048;5.062;2023-05-25T11:14:21;99997.09;;;16.85;76.93
57376;BME280;44805;45.048;5.062;2023-05-25T11:19:47;99970.38;;;16.93;76.61
57376;BME280;44805;45.048;5.062;2023-05-25T11:22:14;99939.19;;;17.02;75.66
57376;BME280;44805;45.048;5.062;2023-05-25T11:24:44;99993.13;;;17.10;75.52
57376;BME280;44805;45.048;5.062;2023-05-25T11:27:10;99939.28;;;16.49;77.15
57376;BME280;44805;45.048;5.062;2023-05-25T11:29:37;100006.50;;;17.32;77.11
57376;BME280;44805;45.048;5.062;2023-05-25T11:32:04;99997.25;;;17.28;75.05
57376;BME280;44805;45.048;5.062;2023-05-25T11:34:35;99952.59;;;17.08;74.37
57376;BME280;44805;45.048;5.062;2023-05-25T11:37:00;99954.97;;;17.03;74.33
57376;BME280;44805;45.048;5.062;2023-05-25T11:39:27;100016.91;;;16.97;75.81
57376;BME280;44805;45.048;5.062;2023-05-25T11:41:54;99984.56;;;16.70;76.72
57376;BME280;44805;45.048;5.062;2023-05-25T11:44:47;99955.91;;;16.81;76.46
57376;BME280;44805;45.048;5.062;2023-05-25T11:47:13;99974.13;;;16.99;77.25
57376;BME280;44805;45.048;5.062;2023-05-25T11:49:43;100006.03;;;17.28;75.98
57376;BME280;44805;45.048;5.062;2023-05-25T11:52:15;99926.25;;;17.13;74.81
57376;BME280;44805;45.048;5.062;2023-05-25T11:54:41;99991.03;;;18.15;71.72
57376;BME280;44805;45.048;5.062;2023-05-25T11:57:14;99991.69;;;18.73;71.90
57376;BME280;44805;45.048;5.062;2023-05-25T11:59:40;99994.84;;;18.83;70.57
57376;BME280;44805;45.048;5.062;2023-05-25T12:02:11;99959.94;;;18.50;71.37
57376;BME280;44805;45.048;5.062;2023-05-25T12:04:37;99950.34;;;18.28;70.82
57376;BME280;44805;45.048;5.062;2023-05-25T12:07:04;100012.03;;;18.53;71.33
57376;BME280;44805;45.048;5.062;2023-05-25T12:09:31;99966.72;;;18.53;70.67
57376;BME280;44805;45.048;5.062;2023-05-25T12:11:57;99955.59;;;18.77;71.19
57376;BME280;44805;45.048;5.062;2023-05-25T12:14:22;99955.69;;;18.91;69.26
57376;BME280;44805;45.048;5.062;2023-05-25T12:16:49;99988.88;;;19.23;70.52
57376;BME280;44805;45.048;5.062;2023-05-25T12:19:15;99951.28;;;18.76;70.53
57376;BME280;44805;45.048;5.062;2023-05-25T12:21:42;99956.16;;;19.07;71.35
57376;BME280;44805;45.048;5.062;2023-05-25T12:24:08;99984.78;;;19.82;68.60
57376;BME280;44805;45.048;5.062;2023-05-25T12:26:46;99938.56;;;19.88;67.69
57376;BME280;44805;45.048;5.062;2023-05-25T12:29:23;99955.94;;;19.57;68.15
57376;BME280;44805;45.048;5.062;2023-05-25T12:31:49;99945.94;;;19.86;67.54
57376;BME280;44805;45.048;5.062;2023-05-25T12:34:16;99981.06;;;19.76;68.77
57376;BME280;44805;45.048;5.062;2023-05-25T12:39:11;99965.50;;;19.93;67.49
57376;BME280;44805;45.048;5.062;2023-05-25T12:41:47;99919.28;;;19.24;69.44
57376;BME280;44805;45.048;5.062;2023-05-25T12:46:42;99946.38;;;19.96;67.63
57376;BME280;44805;45.048;5.062;2023-05-25T12:49:28;99972.69;;;20.39;68.04
57376;BME280;44805;45.048;5.062;2023-05-25T12:51:54;99980.91;;;20.44;65.91
57376;BME280;44805;45.048;5.062;2023-05-25T12:57:05;99967.81;;;21.66;63.21
57376;BME280;44805;45.048;5.062;2023-05-25T12:59:31;99976.91;;;21.58;63.47
57376;BME280;44805;45.048;5.062;2023-05-25T13:01:57;99918.34;;;20.72;64.85
57376;BME280;44805;45.048;5.062;2023-05-25T13:04:23;99931.88;;;20.90;65.60
57376;BME280;44805;45.048;5.062;2023-05-25T13:06:48;99892.41;;;20.66;65.21
57376;BME280;44805;45.048;5.062;2023-05-25T13:09:14;99922.50;;;20.61;67.04
57376;BME280;44805;45.048;5.062;2023-05-25T13:11:40;99896.53;;;20.68;66.14
57376;BME280;44805;45.048;5.062;2023-05-25T13:14:05;99961.91;;;20.92;67.59
57376;BME280;44805;45.048;5.062;2023-05-25T13:16:32;99982.56;;;20.65;68.30
57376;BME280;44805;45.048;5.062;2023-05-25T13:18:57;99958.38;;;20.98;68.57
57376;BME280;44805;45.048;5.062;2023-05-25T13:21:23;99913.69;;;21.06;68.84
57376;BME280;44805;45.048;5.062;2023-05-25T13:23:48;99944.41;;;21.48;64.57
57376;BME280;44805;45.048;5.062;2023-05-25T13:26:14;99942.22;;;21.25;64.02
57376;BME280;44805;45.048;5.062;2023-05-25T13:28:39;99898.13;;;20.76;64.84
57376;BME280;44805;45.048;5.062;2023-05-25T13:31:05;99971.31;;;21.15;61.86
57376;BME280;44805;45.048;5.062;2023-05-25T13:33:30;99939.56;;;21.25;62.42